Cookies

¿Aceptas nuestras cookies?

Aceptar
VAM | Vabird-VBD

Virtual Vabird! Aerolínea Virtual de habla hispana, desde 2011




 INFORMACIÓN METAR y TAF
METAR FOR GCTS
ADDS - METARS form results

(1140 UTC 24 October 2021)
Data provider http://aviationweather.gov/metar/data/
 
METAR text: GCTS 241130Z 10017KT 060V120 9999 FEW040 25/14 Q1020 NOSIG
Conditions at: GCTS (TENERIFE SUR/REI, ES) observed 1130 UTC 24 October 2021
Temperature: 25.0°C (77°F)
Dewpoint: 14.0°C (57°F) [RH = 50%]
Pressure (altimeter): 30.12 inches Hg (1020.0 mb)
Winds: from the E (100 degrees) at 20 MPH (17 knots; 8.7 m/s)
Visibility: 6 or more miles (10+ km)
Ceiling: at least 12,000 feet AGL
Clouds: few clouds at 4000 feet AGL
Weather: no significant weather observed at this time

METAR text: GCTS 241100Z 09017KT 9999 FEW040 25/15 Q1021 NOSIG
Conditions at: GCTS (TENERIFE SUR/REI, ES) observed 1100 UTC 24 October 2021
Temperature: 25.0°C (77°F)
Dewpoint: 15.0°C (59°F) [RH = 54%]
Pressure (altimeter): 30.15 inches Hg (1021.0 mb)
Winds: from the E (90 degrees) at 20 MPH (17 knots; 8.7 m/s)
Visibility: 6 or more miles (10+ km)
Ceiling: at least 12,000 feet AGL
Clouds: few clouds at 4000 feet AGL
Weather: no significant weather observed at this time

Forecast for: GCTS (TENERIFE SUR/REI, ES)
Text: TAF GCTS 240800Z 2409/2509 04014KT 9999 BKN040 TX26/2414Z TN21/2506Z
Forecast period: 0900 UTC 24 October 2021 to 0900 UTC 25 October 2021
Forecast type: FROM: standard forecast or significant change
Winds: from the NE (40 degrees) at 16 MPH (14 knots; 7.2 m/s)
Visibility: 6 or more miles (10+ km)
Ceiling: 4000 feet AGL
Clouds: broken clouds at 4000 feet AGL
Weather: no significant weather forecast for this period

 MAPA DE AEROPUERTO

 INFORMACIÓN DE PISTA